createdAt,value
2022-08-16T00:02:58.763Z,18.58
2022-08-16T00:06:02.502Z,19.51
2022-08-16T00:09:06.124Z,20.00
2022-08-16T00:12:09.283Z,20.07
2022-08-16T00:15:17.336Z,20.03
2022-08-16T00:18:22.136Z,19.89
2022-08-16T00:21:32.347Z,19.66
2022-08-16T00:24:35.618Z,19.46
2022-08-16T00:27:38.846Z,19.30
2022-08-16T00:30:42.130Z,19.25
2022-08-16T00:33:50.124Z,19.36
2022-08-16T00:36:55.970Z,20.31
2022-08-16T00:39:59.215Z,22.43
2022-08-16T00:43:03.240Z,25.14
2022-08-16T00:46:33.885Z,27.25
2022-08-16T00:49:44.340Z,27.09
2022-08-16T00:52:50.893Z,26.60
2022-08-16T00:55:59.513Z,25.86
2022-08-16T00:59:04.584Z,25.10
2022-08-16T01:02:30.554Z,24.41
2022-08-16T01:05:33.617Z,23.83
2022-08-16T01:08:38.027Z,23.76
2022-08-16T01:11:54.058Z,23.61
2022-08-16T01:15:00.834Z,23.61
2022-08-16T01:18:07.335Z,23.45
2022-08-16T01:21:39.865Z,23.29
2022-08-16T01:24:55.443Z,23.16
2022-08-16T01:28:04.738Z,23.10
2022-08-16T01:31:09.292Z,23.23
2022-08-16T01:34:24.854Z,23.59
2022-08-16T01:37:35.845Z,23.49
2022-08-16T01:40:40.664Z,23.35
2022-08-16T01:43:45.742Z,23.40
2022-08-16T01:46:58.154Z,23.35
2022-08-16T01:50:43.305Z,23.36
2022-08-16T01:53:29.409Z,23.35
2022-08-16T01:56:41.639Z,23.20
2022-08-16T01:59:45.446Z,23.15
2022-08-16T02:02:53.910Z,23.12
2022-08-16T02:05:57.512Z,23.26
2022-08-16T02:09:01.627Z,23.32
2022-08-16T02:12:49.483Z,23.30
2022-08-16T02:15:38.730Z,23.18
2022-08-16T02:18:48.618Z,23.20
2022-08-16T02:22:08.862Z,23.34
2022-08-16T02:25:18.127Z,23.22
2022-08-16T02:28:23.533Z,23.18
2022-08-16T02:32:02.653Z,23.14
2022-08-16T02:34:50.940Z,23.19
2022-08-16T02:38:08.704Z,23.22
2022-08-16T02:41:14.411Z,23.30
2022-08-16T02:44:18.854Z,23.44
2022-08-16T02:47:26.221Z,23.57
2022-08-16T02:50:54.053Z,23.78
2022-08-16T02:53:53.658Z,23.99
2022-08-16T02:56:59.667Z,24.17
2022-08-16T03:00:34.372Z,24.35
2022-08-16T03:04:28.940Z,24.51
2022-08-16T03:06:57.263Z,24.81
2022-08-16T03:10:14.528Z,25.04
2022-08-16T03:13:24.458Z,25.14
2022-08-16T03:16:38.236Z,25.07
2022-08-16T03:19:48.367Z,24.93
2022-08-16T03:23:01.844Z,24.73
2022-08-16T03:26:06.095Z,24.72
2022-08-16T03:29:09.837Z,24.82
2022-08-16T03:32:13.781Z,24.83
2022-08-16T03:35:20.487Z,24.99
2022-08-16T03:38:32.745Z,25.10
2022-08-16T03:41:49.741Z,25.24
2022-08-16T03:45:03.325Z,25.19
2022-08-16T03:48:15.195Z,25.23
2022-08-16T03:51:25.366Z,25.22
2022-08-16T03:54:36.280Z,25.12
2022-08-16T03:57:40.743Z,24.90
2022-08-16T04:00:46.525Z,24.87
2022-08-16T04:04:00.206Z,24.99
2022-08-16T04:07:07.393Z,25.00
2022-08-16T04:10:36.002Z,25.10
2022-08-16T04:13:59.891Z,25.36
2022-08-16T04:17:05.589Z,25.50
2022-08-16T04:20:31.401Z,25.72
2022-08-16T04:23:40.590Z,25.82
2022-08-16T04:26:46.555Z,25.77
2022-08-16T04:29:52.301Z,25.82
2022-08-16T04:32:56.165Z,25.98
2022-08-16T04:36:05.013Z,26.16
2022-08-16T04:39:10.023Z,26.25
2022-08-16T04:42:26.255Z,26.25
2022-08-16T04:45:35.711Z,26.11
2022-08-16T04:48:43.345Z,25.86
2022-08-16T04:51:53.918Z,25.69
2022-08-16T04:54:58.861Z,25.98
2022-08-16T04:58:03.749Z,26.44
2022-08-16T05:01:58.362Z,26.64
2022-08-16T05:04:51.138Z,26.85
2022-08-16T05:07:59.603Z,26.78
2022-08-16T05:11:09.033Z,26.76
2022-08-16T05:14:20.193Z,26.81
2022-08-16T05:17:36.557Z,26.71
2022-08-16T05:20:54.206Z,26.67
2022-08-16T05:24:06.150Z,26.41
2022-08-16T05:27:12.081Z,26.18
2022-08-16T05:30:34.852Z,26.06
2022-08-16T05:33:45.401Z,25.84
2022-08-16T05:36:59.674Z,25.70
2022-08-16T05:40:13.239Z,25.51
2022-08-16T05:43:17.948Z,25.49
2022-08-16T05:46:29.731Z,25.43
2022-08-16T05:49:42.229Z,25.35
2022-08-16T05:52:47.977Z,25.31
2022-08-16T05:55:53.548Z,25.20
2022-08-16T05:58:56.925Z,25.08
2022-08-16T06:02:00.079Z,24.89
2022-08-16T06:05:11.023Z,24.78
2022-08-16T06:08:31.885Z,24.62
2022-08-16T06:11:39.175Z,24.48
2022-08-16T06:14:46.528Z,24.33
2022-08-16T06:17:56.744Z,24.31
2022-08-16T06:21:02.343Z,24.30
2022-08-16T06:24:54.477Z,24.28
2022-08-16T06:27:39.610Z,24.32
2022-08-16T06:30:45.227Z,24.40
2022-08-16T06:33:51.755Z,24.42
2022-08-16T06:36:59.566Z,24.35
2022-08-16T06:40:05.517Z,24.43
2022-08-16T06:43:21.977Z,24.70
2022-08-16T06:46:43.395Z,24.89
2022-08-16T06:49:56.033Z,24.95
2022-08-16T06:53:14.911Z,25.07
2022-08-16T06:56:28.396Z,24.99
2022-08-16T06:59:53.202Z,24.75
2022-08-16T07:03:26.497Z,24.54
2022-08-16T07:06:32.548Z,24.40
2022-08-16T07:09:41.657Z,24.37
2022-08-16T07:12:47.539Z,24.27
2022-08-16T07:16:12.713Z,24.11
2022-08-16T07:19:20.753Z,24.06
2022-08-16T07:22:37.942Z,24.04
2022-08-16T07:25:53.703Z,23.93
2022-08-16T07:28:59.088Z,23.79
2022-08-16T07:32:02.306Z,23.78
2022-08-16T07:35:08.112Z,23.81
2022-08-16T07:38:11.815Z,23.79
2022-08-16T07:41:22.864Z,23.72
2022-08-16T07:44:50.699Z,23.65
2022-08-16T07:47:54.600Z,23.61
2022-08-16T07:51:01.608Z,23.66
2022-08-16T07:54:17.099Z,23.70
2022-08-16T07:57:32.269Z,23.82
2022-08-16T08:00:39.910Z,23.91
2022-08-16T08:03:49.030Z,24.04
2022-08-16T08:06:57.519Z,24.02
2022-08-16T08:10:00.701Z,24.00
2022-08-16T08:13:04.984Z,23.95
2022-08-16T08:16:18.590Z,23.88
2022-08-16T08:19:24.180Z,23.91
2022-08-16T08:22:30.453Z,23.96
2022-08-16T08:25:55.061Z,24.04
2022-08-16T08:29:03.129Z,24.18
2022-08-16T08:32:58.337Z,24.31
2022-08-16T08:35:40.164Z,24.40
2022-08-16T08:38:46.304Z,24.42
2022-08-16T08:41:55.019Z,24.41
2022-08-16T08:44:59.683Z,24.37
2022-08-16T08:48:05.867Z,24.26
2022-08-16T08:51:11.150Z,24.17
2022-08-16T08:54:26.991Z,24.23
2022-08-16T08:57:31.725Z,24.29
2022-08-16T09:00:52.973Z,24.50
2022-08-16T09:03:57.731Z,24.77
2022-08-16T09:07:01.237Z,24.98
2022-08-16T09:10:20.318Z,25.06
2022-08-16T09:13:25.384Z,24.85
2022-08-16T09:17:03.157Z,24.84
2022-08-16T09:19:55.119Z,24.54
2022-08-16T09:23:03.939Z,24.54
2022-08-16T09:26:44.637Z,24.55
2022-08-16T09:29:44.353Z,24.49
2022-08-16T09:32:51.733Z,24.48
2022-08-16T09:35:56.857Z,24.36
2022-08-16T09:39:02.722Z,24.16
2022-08-16T09:42:05.833Z,23.94
2022-08-16T09:45:18.353Z,23.71
2022-08-16T09:48:36.906Z,23.52
2022-08-16T09:51:44.790Z,23.47
2022-08-16T09:54:47.898Z,23.47
2022-08-16T09:57:53.820Z,23.55
2022-08-16T10:00:56.968Z,23.58
2022-08-16T10:04:01.802Z,23.62
2022-08-16T10:07:14.984Z,23.57
2022-08-16T10:10:31.059Z,23.51
2022-08-16T10:13:35.056Z,23.38
2022-08-16T10:16:38.940Z,23.24
2022-08-16T10:19:43.256Z,23.10
2022-08-16T10:22:46.712Z,22.98
2022-08-16T10:27:16.670Z,22.88
2022-08-16T10:29:19.867Z,22.76
2022-08-16T10:32:24.128Z,22.63
2022-08-16T10:35:33.445Z,22.55
2022-08-16T10:38:39.103Z,22.45
2022-08-16T10:41:45.736Z,22.26
2022-08-16T10:44:53.690Z,22.11
2022-08-16T10:48:02.867Z,21.91
2022-08-16T10:51:07.395Z,21.73
2022-08-16T10:54:21.230Z,21.54
2022-08-16T10:57:33.321Z,21.34
2022-08-16T11:00:41.319Z,21.10
2022-08-16T11:03:47.141Z,20.82
2022-08-16T11:11:05.343Z,20.60
2022-08-16T11:13:59.235Z,20.53
2022-08-16T11:17:10.596Z,20.52
2022-08-16T11:23:38.052Z,20.35
2022-08-16T11:30:36.866Z,20.16
2022-08-16T11:33:57.585Z,20.03
2022-08-16T11:37:02.757Z,19.99
2022-08-16T11:40:10.219Z,19.88
2022-08-16T11:43:21.733Z,19.76
2022-08-16T11:46:44.972Z,19.60
2022-08-16T11:49:49.229Z,19.44
2022-08-16T11:52:53.629Z,19.27
2022-08-16T11:55:58.839Z,19.12
2022-08-16T11:59:03.060Z,18.94
2022-08-16T12:02:32.395Z,18.78
2022-08-16T12:05:34.478Z,18.66
2022-08-16T12:08:37.591Z,18.52
2022-08-16T12:11:41.314Z,18.39
2022-08-16T12:14:47.049Z,18.26
2022-08-16T12:17:50.879Z,18.16
2022-08-16T12:20:58.205Z,18.09
2022-08-16T12:24:01.636Z,18.01
2022-08-16T12:27:07.249Z,17.91
2022-08-16T12:30:21.786Z,17.86
2022-08-16T12:33:30.065Z,17.79
2022-08-16T12:36:33.078Z,17.75
2022-08-16T12:39:36.294Z,17.72
2022-08-16T12:42:40.031Z,17.67
2022-08-16T12:45:56.940Z,17.62
2022-08-16T12:49:04.119Z,17.56
2022-08-16T12:52:07.202Z,17.50
2022-08-16T12:55:14.309Z,17.48
2022-08-16T12:58:47.413Z,17.44
2022-08-16T13:01:46.636Z,17.34
2022-08-16T13:04:49.803Z,17.25
2022-08-16T13:07:54.593Z,17.25
2022-08-16T13:10:58.688Z,17.21
2022-08-16T13:14:01.964Z,17.20
2022-08-16T13:17:17.103Z,17.28
2022-08-16T13:20:26.758Z,17.35
2022-08-16T13:23:29.896Z,17.43
2022-08-16T13:26:33.253Z,17.53
2022-08-16T13:29:39.934Z,17.56
2022-08-16T13:32:47.343Z,17.59
2022-08-16T13:35:57.752Z,17.52
2022-08-16T13:39:06.641Z,17.45
2022-08-16T13:42:13.610Z,17.38
2022-08-16T13:45:17.765Z,17.28
2022-08-16T13:48:25.967Z,17.22
2022-08-16T13:51:30.910Z,17.13
2022-08-16T13:54:34.036Z,17.06
2022-08-16T13:58:35.306Z,16.98
2022-08-16T14:01:01.699Z,16.92
2022-08-16T14:04:06.003Z,16.88
2022-08-16T14:07:19.867Z,16.89
2022-08-16T14:10:28.130Z,16.86
2022-08-16T14:13:31.171Z,16.79
2022-08-16T14:16:37.203Z,16.74
2022-08-16T14:19:44.939Z,16.69
2022-08-16T14:22:52.489Z,16.63
2022-08-16T14:25:58.285Z,16.54
2022-08-16T14:29:03.817Z,16.42
2022-08-16T14:32:09.346Z,16.35
2022-08-16T14:35:20.761Z,16.29
2022-08-16T14:38:24.293Z,16.21
2022-08-16T14:41:32.684Z,16.19
2022-08-16T14:44:36.684Z,16.16
2022-08-16T14:47:42.312Z,16.15
2022-08-16T14:50:45.811Z,16.13
2022-08-16T14:53:49.817Z,16.07
2022-08-16T14:56:55.493Z,16.00
2022-08-16T15:00:04.671Z,15.92
2022-08-16T15:03:11.278Z,15.83
2022-08-16T15:06:16.307Z,15.76
2022-08-16T15:09:19.827Z,15.69
2022-08-16T15:12:33.472Z,15.67
2022-08-16T15:15:38.091Z,15.61
2022-08-16T15:18:41.139Z,15.54
2022-08-16T15:21:44.196Z,15.45
2022-08-16T15:24:47.197Z,15.43
2022-08-16T15:27:55.439Z,15.42
2022-08-16T15:31:01.021Z,15.38
2022-08-16T15:34:06.527Z,15.36
2022-08-16T15:37:17.567Z,15.26
2022-08-16T15:40:32.166Z,15.17
2022-08-16T15:43:39.902Z,15.15
2022-08-16T15:46:55.627Z,15.16
2022-08-16T15:50:01.883Z,15.14
2022-08-16T15:53:15.525Z,15.08
2022-08-16T15:56:18.596Z,15.00
2022-08-16T15:59:24.582Z,14.99
2022-08-16T16:02:31.380Z,14.75
2022-08-16T16:05:36.648Z,14.60
2022-08-16T16:08:41.727Z,14.52
2022-08-16T16:11:48.683Z,14.52
2022-08-16T16:14:53.401Z,14.54
2022-08-16T16:17:56.867Z,14.57
2022-08-16T16:21:09.183Z,14.55
2022-08-16T16:24:21.655Z,14.51
2022-08-16T16:27:27.369Z,14.48
2022-08-16T16:30:33.037Z,14.42
2022-08-16T16:33:50.555Z,14.33
2022-08-16T16:36:53.636Z,14.15
2022-08-16T16:39:57.647Z,14.06
2022-08-16T16:43:04.340Z,14.04
2022-08-16T16:46:41.333Z,14.00
2022-08-16T16:49:34.669Z,13.90
2022-08-16T16:52:47.328Z,13.80
2022-08-16T16:55:52.265Z,13.68
2022-08-16T16:59:00.992Z,13.60
2022-08-16T17:02:41.691Z,13.43
2022-08-16T17:05:32.560Z,13.33
2022-08-16T17:08:35.839Z,13.33
2022-08-16T17:11:41.862Z,13.40
2022-08-16T17:14:44.877Z,13.44
2022-08-16T17:17:59.998Z,13.48
2022-08-16T17:21:06.882Z,13.59
2022-08-16T17:24:17.365Z,13.71
2022-08-16T17:27:33.827Z,13.91
2022-08-16T17:30:44.746Z,14.02
2022-08-16T17:33:54.679Z,13.89
2022-08-16T17:36:59.797Z,13.78
2022-08-16T17:40:04.013Z,13.71
2022-08-16T17:43:11.195Z,13.65
2022-08-16T17:46:51.557Z,13.58
2022-08-16T17:49:40.127Z,13.48
2022-08-16T17:52:49.180Z,13.43
2022-08-16T17:55:55.042Z,13.35
2022-08-16T17:58:58.073Z,13.27
2022-08-16T18:02:01.148Z,13.20
2022-08-16T18:05:20.906Z,13.16
2022-08-16T18:08:26.195Z,13.14
2022-08-16T18:11:41.166Z,13.14
2022-08-16T18:14:50.877Z,13.12
2022-08-16T18:17:55.701Z,13.11
2022-08-16T18:21:17.420Z,13.10
2022-08-16T18:24:20.997Z,13.07
2022-08-16T18:27:26.222Z,13.03
2022-08-16T18:30:30.301Z,13.00
2022-08-16T18:33:43.316Z,12.95
2022-08-16T18:36:47.316Z,12.99
2022-08-16T18:39:50.377Z,13.04
2022-08-16T18:42:59.603Z,13.15
2022-08-16T18:46:02.657Z,13.30
2022-08-16T18:49:05.887Z,13.43
2022-08-16T18:52:08.945Z,13.47
2022-08-16T18:55:13.919Z,13.46
2022-08-16T18:58:17.901Z,13.44
2022-08-16T19:01:21.050Z,13.43
2022-08-16T19:04:55.098Z,13.37
2022-08-16T19:07:47.144Z,13.29
2022-08-16T19:10:51.669Z,13.25
2022-08-16T19:13:55.022Z,13.21
2022-08-16T19:16:58.188Z,13.18
2022-08-16T19:20:01.318Z,13.17
2022-08-16T19:23:10.489Z,13.08
2022-08-16T19:26:24.511Z,13.02
2022-08-16T19:29:29.769Z,12.97
2022-08-16T19:32:33.521Z,12.91
2022-08-16T19:35:38.138Z,12.91
2022-08-16T19:38:41.186Z,12.90
2022-08-16T19:41:52.978Z,12.92
2022-08-16T19:44:59.895Z,12.89
2022-08-16T19:48:04.432Z,12.82
2022-08-16T19:51:09.512Z,12.77
2022-08-16T19:54:12.565Z,12.76
2022-08-16T19:57:17.392Z,12.79
2022-08-16T20:00:20.227Z,12.91
2022-08-16T20:03:25.054Z,12.97
2022-08-16T20:06:37.492Z,13.00
2022-08-16T20:09:42.095Z,12.94
2022-08-16T20:12:58.263Z,12.97
2022-08-16T20:16:05.670Z,13.04
2022-08-16T20:19:08.850Z,13.09
2022-08-16T20:22:49.821Z,13.18
2022-08-16T20:25:50.009Z,13.19
2022-08-16T20:28:55.154Z,13.23
2022-08-16T20:31:58.573Z,13.17
2022-08-16T20:35:02.705Z,13.03
2022-08-16T20:38:05.764Z,12.94
2022-08-16T20:41:09.362Z,12.99
2022-08-16T20:44:13.256Z,13.02
2022-08-16T20:47:16.428Z,12.97
2022-08-16T20:50:19.656Z,12.98
2022-08-16T20:53:23.804Z,13.09
2022-08-16T20:56:27.115Z,13.13
2022-08-16T20:59:30.604Z,13.13
2022-08-16T21:02:33.694Z,13.14
2022-08-16T21:05:41.047Z,13.17
2022-08-16T21:08:53.522Z,13.15
2022-08-16T21:11:59.443Z,13.14
2022-08-16T21:15:08.033Z,13.22
2022-08-16T21:18:11.019Z,13.25
2022-08-16T21:21:14.080Z,13.27
2022-08-16T21:24:17.809Z,13.30
2022-08-16T21:27:20.926Z,13.32
2022-08-16T21:30:29.997Z,13.36
2022-08-16T21:33:35.786Z,13.41
2022-08-16T21:36:38.826Z,13.44
2022-08-16T21:39:41.913Z,13.43
2022-08-16T21:42:45.758Z,13.38
2022-08-16T21:45:48.950Z,13.31
2022-08-16T21:48:58.537Z,13.32
2022-08-16T21:52:03.419Z,13.38
2022-08-16T21:55:07.689Z,13.44
2022-08-16T21:58:11.558Z,13.49
2022-08-16T22:01:14.679Z,13.57
2022-08-16T22:04:37.730Z,13.61
2022-08-16T22:07:41.813Z,13.53
2022-08-16T22:11:07.838Z,13.49
2022-08-16T22:14:08.540Z,13.59
2022-08-16T22:17:11.751Z,13.71
2022-08-16T22:20:14.790Z,13.76
2022-08-16T22:23:25.104Z,13.84
2022-08-16T22:26:32.749Z,13.88
2022-08-16T22:29:35.788Z,13.88
2022-08-16T22:32:44.936Z,13.86
2022-08-16T22:35:51.706Z,13.93
2022-08-16T22:38:57.445Z,14.00
2022-08-16T22:42:09.011Z,14.11
2022-08-16T22:45:12.881Z,14.16
2022-08-16T22:48:17.658Z,14.30
2022-08-16T22:51:22.936Z,14.50
2022-08-16T22:54:44.280Z,14.79
2022-08-16T22:57:49.437Z,15.07
2022-08-16T23:00:52.398Z,15.34
2022-08-16T23:03:56.252Z,15.51
2022-08-16T23:06:59.395Z,15.59
2022-08-16T23:10:02.458Z,15.59
2022-08-16T23:13:08.023Z,15.58
2022-08-16T23:16:11.838Z,15.54
2022-08-16T23:19:16.849Z,15.53
2022-08-16T23:22:19.586Z,15.59
2022-08-16T23:25:30.690Z,15.45
2022-08-16T23:28:33.693Z,15.39
2022-08-16T23:31:36.679Z,15.35
2022-08-16T23:34:41.776Z,15.36
2022-08-16T23:37:44.973Z,15.36
2022-08-16T23:40:49.152Z,15.38
2022-08-16T23:43:52.147Z,15.41
2022-08-16T23:46:55.267Z,15.44
2022-08-16T23:50:03.672Z,15.48
2022-08-16T23:53:14.256Z,15.54
2022-08-16T23:56:20.811Z,15.59
2022-08-16T23:59:23.793Z,15.63
